createdAt,value
2023-02-19T00:01:08.930Z,57.85
2023-02-19T00:03:37.178Z,56.97
2023-02-19T00:06:05.250Z,57.38
2023-02-19T00:08:32.950Z,57.91
2023-02-19T00:11:04.255Z,56.53
2023-02-19T00:13:31.380Z,59.92
2023-02-19T00:15:58.420Z,60.94
2023-02-19T00:18:25.406Z,61.80
2023-02-19T00:20:52.420Z,60.81
2023-02-19T00:23:19.360Z,59.15
2023-02-19T00:25:46.368Z,57.21
2023-02-19T00:28:13.317Z,56.13
2023-02-19T00:30:40.553Z,56.57
2023-02-19T00:33:08.668Z,56.37
2023-02-19T00:35:35.756Z,57.64
2023-02-19T00:38:02.878Z,56.22
2023-02-19T00:40:29.865Z,55.33
2023-02-19T00:42:57.206Z,54.41
2023-02-19T00:45:24.155Z,55.17
2023-02-19T00:47:51.132Z,56.30
2023-02-19T00:50:18.155Z,55.43
2023-02-19T00:52:45.414Z,54.34
2023-02-19T00:55:12.679Z,54.85
2023-02-19T00:57:39.626Z,54.10
2023-02-19T01:00:07.353Z,53.24
2023-02-19T01:02:34.306Z,53.20
2023-02-19T01:05:01.304Z,52.81
2023-02-19T01:07:28.355Z,52.23
2023-02-19T01:09:55.299Z,52.28
2023-02-19T01:12:24.345Z,52.24
2023-02-19T01:14:51.397Z,52.29
2023-02-19T01:17:18.350Z,52.07
2023-02-19T01:19:45.485Z,53.57
2023-02-19T01:22:12.770Z,53.14
2023-02-19T01:24:39.774Z,54.02
2023-02-19T01:27:06.729Z,52.38
2023-02-19T01:29:33.664Z,53.65
2023-02-19T01:32:00.825Z,55.16
2023-02-19T01:34:30.211Z,54.61
2023-02-19T01:36:57.378Z,54.56
2023-02-19T01:39:24.358Z,53.65
2023-02-19T01:41:51.273Z,55.01
2023-02-19T01:44:18.644Z,53.78
2023-02-19T01:46:46.464Z,53.45
2023-02-19T01:49:15.735Z,53.14
2023-02-19T01:52:04.251Z,54.39
2023-02-19T01:54:36.264Z,57.52
2023-02-19T01:57:04.702Z,57.28
2023-02-19T01:59:31.960Z,58.35
2023-02-19T02:01:59.196Z,58.78
2023-02-19T02:04:26.235Z,58.05
2023-02-19T02:06:57.085Z,58.67
2023-02-19T02:09:45.111Z,60.17
2023-02-19T02:12:12.932Z,59.71
2023-02-19T02:14:44.549Z,60.60
2023-02-19T02:17:24.986Z,59.29
2023-02-19T02:20:10.772Z,58.38
2023-02-19T02:22:58.740Z,59.39
2023-02-19T02:25:44.584Z,58.94
2023-02-19T02:28:23.478Z,58.37
2023-02-19T02:31:14.383Z,57.77
2023-02-19T02:33:54.669Z,57.08
2023-02-19T02:36:28.721Z,55.79
2023-02-19T02:38:55.896Z,56.81
2023-02-19T02:41:23.586Z,56.35
2023-02-19T02:43:50.514Z,57.03
2023-02-19T02:46:24.674Z,58.17
2023-02-19T02:49:00.033Z,57.48
2023-02-19T02:51:32.570Z,59.69
2023-02-19T02:54:31.218Z,58.52
2023-02-19T02:57:00.366Z,57.83
2023-02-19T02:59:32.746Z,56.35
2023-02-19T03:02:11.992Z,56.20
2023-02-19T03:05:19.152Z,55.62
2023-02-19T03:07:53.643Z,54.47
2023-02-19T03:10:24.900Z,56.05
2023-02-19T03:13:10.364Z,57.49
2023-02-19T03:16:00.383Z,59.17
2023-02-19T03:18:45.907Z,58.20
2023-02-19T03:21:13.146Z,57.95
2023-02-19T03:23:59.153Z,57.82
2023-02-19T03:26:26.147Z,57.70
2023-02-19T03:29:11.711Z,57.48
2023-02-19T03:31:41.880Z,57.40
2023-02-19T03:34:10.757Z,57.13
2023-02-19T03:36:51.159Z,58.54
2023-02-19T03:39:20.399Z,60.00
2023-02-19T03:42:06.375Z,61.13
2023-02-19T03:44:57.293Z,59.98
2023-02-19T03:47:27.042Z,61.43
2023-02-19T03:50:03.507Z,60.74
2023-02-19T03:52:58.514Z,59.25
2023-02-19T03:55:43.686Z,58.88
2023-02-19T03:58:29.576Z,58.63
2023-02-19T04:01:13.681Z,59.22
2023-02-19T04:03:43.976Z,60.05
2023-02-19T04:06:16.409Z,59.71
2023-02-19T04:08:46.352Z,58.39
2023-02-19T04:11:13.793Z,57.82
2023-02-19T04:14:03.325Z,59.47
2023-02-19T04:16:30.607Z,58.40
2023-02-19T04:19:00.734Z,58.75
2023-02-19T04:21:27.706Z,58.71
2023-02-19T04:23:54.656Z,58.54
2023-02-19T04:26:21.628Z,57.93
2023-02-19T04:28:48.577Z,57.27
2023-02-19T04:31:15.613Z,56.93
2023-02-19T04:33:42.593Z,58.48
2023-02-19T04:36:10.633Z,57.16
2023-02-19T04:38:37.820Z,57.60
2023-02-19T04:41:04.924Z,57.19
2023-02-19T04:43:31.829Z,59.06
2023-02-19T04:46:02.228Z,58.89
2023-02-19T04:48:29.274Z,58.98
2023-02-19T04:50:56.350Z,59.46
2023-02-19T04:53:23.302Z,61.43
2023-02-19T04:55:53.368Z,60.25
2023-02-19T04:58:20.952Z,62.31
2023-02-19T05:00:51.832Z,62.44
2023-02-19T05:03:18.814Z,63.54
2023-02-19T05:05:45.766Z,61.82
2023-02-19T05:08:12.766Z,64.49
2023-02-19T05:10:39.783Z,64.90
2023-02-19T05:13:06.670Z,63.98
2023-02-19T05:15:33.655Z,62.66
2023-02-19T05:18:00.768Z,61.84
2023-02-19T05:20:27.768Z,60.55
2023-02-19T05:22:54.750Z,60.55
2023-02-19T05:25:21.653Z,60.62
2023-02-19T05:27:48.587Z,60.92
2023-02-19T05:30:15.662Z,59.63
2023-02-19T05:32:42.561Z,59.13
2023-02-19T05:35:09.533Z,61.05
2023-02-19T05:37:36.442Z,61.74
2023-02-19T05:40:03.633Z,62.05
2023-02-19T05:42:30.574Z,64.42
2023-02-19T05:44:57.531Z,64.64
2023-02-19T05:47:24.574Z,62.94
2023-02-19T05:49:51.473Z,62.40
2023-02-19T05:52:18.401Z,61.67
2023-02-19T05:54:45.462Z,63.35
2023-02-19T05:57:12.393Z,62.07
2023-02-19T05:59:39.536Z,59.93
2023-02-19T06:02:06.617Z,60.40
2023-02-19T06:04:33.568Z,59.45
2023-02-19T06:07:00.511Z,58.42
2023-02-19T06:09:27.498Z,60.18
2023-02-19T06:11:54.462Z,61.13
2023-02-19T06:14:21.430Z,60.79
2023-02-19T06:16:48.471Z,59.21
2023-02-19T06:19:15.504Z,58.19
2023-02-19T06:21:42.509Z,58.21
2023-02-19T06:24:09.938Z,59.18
2023-02-19T06:26:37.014Z,62.22
2023-02-19T06:29:04.326Z,62.31
2023-02-19T06:31:31.627Z,61.70
2023-02-19T06:33:58.649Z,62.07
2023-02-19T06:36:25.788Z,62.02
2023-02-19T06:38:52.841Z,63.64
2023-02-19T06:41:20.349Z,64.47
2023-02-19T06:43:47.383Z,64.85
2023-02-19T06:46:15.256Z,65.81
2023-02-19T06:48:44.351Z,65.92
2023-02-19T06:51:13.670Z,64.90
2023-02-19T06:53:40.558Z,64.12
2023-02-19T06:56:28.780Z,65.35
2023-02-19T06:58:56.870Z,66.28
2023-02-19T07:01:24.675Z,67.36
2023-02-19T07:03:52.929Z,70.57
2023-02-19T07:06:23.906Z,72.21
2023-02-19T07:08:51.126Z,72.25
2023-02-19T07:11:18.781Z,72.10
2023-02-19T07:13:45.803Z,70.24
2023-02-19T07:16:12.965Z,70.50
2023-02-19T07:18:40.385Z,69.07
2023-02-19T07:21:12.386Z,69.07
2023-02-19T07:23:39.981Z,68.56
2023-02-19T07:26:13.973Z,69.69
2023-02-19T07:28:41.734Z,68.35
2023-02-19T07:31:08.871Z,68.72
2023-02-19T07:33:35.972Z,68.65
2023-02-19T07:36:03.021Z,68.54
2023-02-19T07:38:30.003Z,67.20
2023-02-19T07:40:58.385Z,68.32
2023-02-19T07:43:25.915Z,66.71
2023-02-19T07:45:53.461Z,66.31
2023-02-19T07:48:20.511Z,66.83
2023-02-19T07:50:59.633Z,66.75
2023-02-19T07:53:26.867Z,65.34
2023-02-19T07:55:53.964Z,65.22
2023-02-19T07:58:21.007Z,65.94
2023-02-19T08:00:47.956Z,64.97
2023-02-19T08:03:15.078Z,65.44
2023-02-19T08:05:42.746Z,64.83
2023-02-19T08:08:12.153Z,64.71
2023-02-19T08:10:57.575Z,64.55
2023-02-19T08:13:25.523Z,62.15
2023-02-19T08:15:55.106Z,62.98
2023-02-19T08:18:24.944Z,63.17
2023-02-19T08:20:51.969Z,63.27
2023-02-19T08:23:20.836Z,65.36
2023-02-19T08:25:48.706Z,66.15
2023-02-19T08:28:15.738Z,63.67
2023-02-19T08:30:45.407Z,62.68
2023-02-19T08:33:14.639Z,64.20
2023-02-19T08:35:42.930Z,64.15
2023-02-19T08:38:10.619Z,62.23
2023-02-19T08:40:38.761Z,62.49
2023-02-19T08:43:10.564Z,62.96
2023-02-19T08:45:38.065Z,65.18
2023-02-19T08:48:05.361Z,64.20
2023-02-19T08:50:32.658Z,62.65
2023-02-19T08:53:00.593Z,61.66
2023-02-19T08:55:27.597Z,61.14
2023-02-19T08:57:54.898Z,59.51
2023-02-19T09:00:22.010Z,58.24
2023-02-19T09:02:49.376Z,58.97
2023-02-19T09:05:16.681Z,60.31
2023-02-19T09:07:43.933Z,59.49
2023-02-19T09:10:11.459Z,60.37
2023-02-19T09:12:38.634Z,61.54
2023-02-19T09:15:06.199Z,58.66
2023-02-19T09:17:33.345Z,60.69
2023-02-19T09:20:00.393Z,59.86
2023-02-19T09:22:27.478Z,59.72
2023-02-19T09:24:54.683Z,59.04
2023-02-19T09:27:21.776Z,60.94
2023-02-19T09:29:48.783Z,61.88
2023-02-19T09:32:17.498Z,62.12
2023-02-19T09:34:45.824Z,61.55
2023-02-19T09:37:12.814Z,63.11
2023-02-19T09:39:39.800Z,62.21
2023-02-19T09:42:15.885Z,60.75
2023-02-19T09:44:44.760Z,61.09
2023-02-19T09:47:17.781Z,60.91
2023-02-19T09:49:50.107Z,61.15
2023-02-19T09:52:25.859Z,62.98
2023-02-19T09:54:57.693Z,61.71
2023-02-19T09:57:25.876Z,62.59
2023-02-19T09:59:57.165Z,62.13
2023-02-19T10:02:24.864Z,60.27
2023-02-19T10:04:52.298Z,60.60
2023-02-19T10:07:49.030Z,61.62
2023-02-19T10:10:15.870Z,61.55
2023-02-19T10:12:54.326Z,62.87
2023-02-19T10:15:30.517Z,62.61
2023-02-19T10:17:57.859Z,62.03
2023-02-19T10:20:26.770Z,63.64
2023-02-19T10:23:02.726Z,65.18
2023-02-19T10:25:29.975Z,62.88
2023-02-19T10:27:59.470Z,65.11
2023-02-19T10:30:31.200Z,63.16
2023-02-19T10:33:13.000Z,61.96
2023-02-19T10:36:00.167Z,62.74
2023-02-19T10:38:32.347Z,63.62
2023-02-19T10:41:08.683Z,63.82
2023-02-19T10:43:37.316Z,62.14
2023-02-19T10:46:17.689Z,63.91
2023-02-19T10:49:01.175Z,63.21
2023-02-19T10:51:40.926Z,61.71
2023-02-19T10:54:17.997Z,61.83
2023-02-19T10:56:45.125Z,59.96
2023-02-19T10:59:26.495Z,59.77
2023-02-19T11:02:04.404Z,58.79
2023-02-19T11:04:35.469Z,60.89
2023-02-19T11:07:14.206Z,61.01
2023-02-19T11:09:43.150Z,59.81
2023-02-19T11:12:10.247Z,58.00
2023-02-19T11:14:37.352Z,56.85
2023-02-19T11:17:05.724Z,57.21
2023-02-19T11:19:36.693Z,56.00
2023-02-19T11:22:28.326Z,57.96
2023-02-19T11:24:58.427Z,56.29
2023-02-19T11:27:26.398Z,56.99
2023-02-19T11:29:53.441Z,59.19
2023-02-19T11:32:20.577Z,58.46
2023-02-19T11:34:48.153Z,55.21
2023-02-19T11:37:20.936Z,55.77
2023-02-19T11:39:49.215Z,57.38
2023-02-19T11:42:19.328Z,56.96
2023-02-19T11:44:58.489Z,56.20
2023-02-19T11:47:50.390Z,56.25
2023-02-19T11:50:26.682Z,57.24
2023-02-19T11:53:11.578Z,60.46
2023-02-19T11:55:54.186Z,59.90
2023-02-19T11:58:45.810Z,59.30
2023-02-19T12:01:15.696Z,58.64
2023-02-19T12:04:00.984Z,57.76
2023-02-19T12:06:55.249Z,56.72
2023-02-19T12:09:30.781Z,57.49
2023-02-19T12:12:00.730Z,57.63
2023-02-19T12:14:51.994Z,57.81
2023-02-19T12:17:31.623Z,57.38
2023-02-19T12:20:03.738Z,55.06
2023-02-19T12:22:32.478Z,53.37
2023-02-19T12:25:17.871Z,55.01
2023-02-19T12:27:57.130Z,53.15
2023-02-19T12:31:08.654Z,54.43
2023-02-19T12:34:07.650Z,56.34
2023-02-19T12:36:53.056Z,56.86
2023-02-19T12:39:29.169Z,57.04
2023-02-19T12:41:59.014Z,55.97
2023-02-19T12:44:42.694Z,55.33
2023-02-19T12:47:16.986Z,55.68
2023-02-19T12:49:47.265Z,55.45
2023-02-19T12:52:18.516Z,53.66
2023-02-19T12:54:46.722Z,53.83
2023-02-19T12:57:29.993Z,54.38
2023-02-19T13:00:28.368Z,54.26
2023-02-19T13:03:20.985Z,54.65
2023-02-19T13:05:58.937Z,54.14
2023-02-19T13:08:34.189Z,52.87
2023-02-19T13:11:05.475Z,52.47
2023-02-19T13:13:38.595Z,51.41
2023-02-19T13:16:18.460Z,51.91
2023-02-19T13:18:56.902Z,52.40
2023-02-19T13:21:44.461Z,52.33
2023-02-19T13:24:13.934Z,54.09
2023-02-19T13:27:10.851Z,53.54
2023-02-19T13:30:06.033Z,52.19
2023-02-19T13:33:01.036Z,51.94
2023-02-19T13:35:52.966Z,52.59
2023-02-19T13:38:20.113Z,52.44
2023-02-19T13:40:55.011Z,51.88
2023-02-19T13:43:27.623Z,51.07
2023-02-19T13:45:59.392Z,52.92
2023-02-19T13:48:32.305Z,50.86
2023-02-19T13:51:23.623Z,50.80
2023-02-19T13:53:57.502Z,50.42
2023-02-19T13:56:31.394Z,52.48
2023-02-19T13:59:17.303Z,52.10
2023-02-19T14:01:53.376Z,53.75
2023-02-19T14:04:40.273Z,52.91
2023-02-19T14:07:07.325Z,51.54
2023-02-19T14:09:37.385Z,51.04
2023-02-19T14:12:09.612Z,52.02
2023-02-19T14:14:37.123Z,51.59
2023-02-19T14:17:10.077Z,52.28
2023-02-19T14:19:43.205Z,50.73
2023-02-19T14:22:47.624Z,51.03
2023-02-19T14:25:39.777Z,48.96
2023-02-19T14:28:06.974Z,49.77
2023-02-19T14:30:34.827Z,52.01
2023-02-19T14:33:10.755Z,49.40
2023-02-19T14:35:44.502Z,49.98
2023-02-19T14:38:22.799Z,50.75
2023-02-19T14:40:49.804Z,52.29
2023-02-19T14:43:18.556Z,51.39
2023-02-19T14:45:48.704Z,51.05
2023-02-19T14:48:30.956Z,51.13
2023-02-19T14:51:02.711Z,49.74
2023-02-19T14:53:29.820Z,49.94
2023-02-19T14:55:57.147Z,49.59
2023-02-19T14:58:31.048Z,51.58
2023-02-19T15:00:58.094Z,52.99
2023-02-19T15:03:31.985Z,51.85
2023-02-19T15:06:06.355Z,51.26
2023-02-19T15:08:37.108Z,50.73
2023-02-19T15:11:04.944Z,51.95
2023-02-19T15:13:32.145Z,51.82
2023-02-19T15:15:59.146Z,50.35
2023-02-19T15:18:27.027Z,51.77
2023-02-19T15:21:04.792Z,52.36
2023-02-19T15:23:32.034Z,50.30
2023-02-19T15:25:59.130Z,49.84
2023-02-19T15:28:25.995Z,49.31
2023-02-19T15:30:59.020Z,49.69
2023-02-19T15:33:27.530Z,50.25
2023-02-19T15:35:59.170Z,50.53
2023-02-19T15:38:26.220Z,50.05
2023-02-19T15:40:53.420Z,49.92
2023-02-19T15:43:28.192Z,49.89
2023-02-19T15:46:03.944Z,51.24
2023-02-19T15:48:36.124Z,49.60
2023-02-19T15:51:09.811Z,49.41
2023-02-19T15:53:41.189Z,49.92
2023-02-19T15:56:28.338Z,50.82
2023-02-19T15:59:00.149Z,50.29
2023-02-19T16:01:32.306Z,49.57
2023-02-19T16:03:59.345Z,52.46
2023-02-19T16:06:27.050Z,52.63
2023-02-19T16:09:02.261Z,50.60
2023-02-19T16:11:37.510Z,52.11
2023-02-19T16:14:32.155Z,51.90
2023-02-19T16:17:05.816Z,51.27
2023-02-19T16:19:36.873Z,50.54
2023-02-19T16:22:03.948Z,49.11
2023-02-19T16:24:36.009Z,49.75
2023-02-19T16:27:03.353Z,52.31
2023-02-19T16:29:33.596Z,51.33
2023-02-19T16:32:02.435Z,51.62
2023-02-19T16:34:42.232Z,49.67
2023-02-19T16:37:33.698Z,48.95
2023-02-19T16:40:11.125Z,48.50
2023-02-19T16:42:38.563Z,49.40
2023-02-19T16:45:07.519Z,50.48
2023-02-19T16:47:36.435Z,51.69
2023-02-19T16:50:05.010Z,53.18
2023-02-19T16:52:32.018Z,51.92
2023-02-19T16:54:59.065Z,50.79
2023-02-19T16:57:25.979Z,51.51
2023-02-19T16:59:53.189Z,52.00
2023-02-19T17:02:21.353Z,50.64
2023-02-19T17:04:48.695Z,52.05
2023-02-19T17:07:16.232Z,52.64
2023-02-19T17:09:43.364Z,50.92
2023-02-19T17:12:14.214Z,51.43
2023-02-19T17:14:41.365Z,52.60
2023-02-19T17:17:08.575Z,53.29
2023-02-19T17:19:35.720Z,51.44
2023-02-19T17:22:02.846Z,50.78
2023-02-19T17:24:29.863Z,52.64
2023-02-19T17:26:56.857Z,51.30
2023-02-19T17:29:24.741Z,52.79
2023-02-19T17:31:52.187Z,51.92
2023-02-19T17:34:19.358Z,52.56
2023-02-19T17:36:47.030Z,51.42
2023-02-19T17:39:15.326Z,51.67
2023-02-19T17:41:42.461Z,54.22
2023-02-19T17:44:09.826Z,52.94
2023-02-19T17:46:37.369Z,52.42
2023-02-19T17:49:04.470Z,51.93
2023-02-19T17:51:31.556Z,53.62
2023-02-19T17:53:58.683Z,51.81
2023-02-19T17:56:26.221Z,53.88
2023-02-19T17:58:54.241Z,53.18
2023-02-19T18:01:21.703Z,54.55
2023-02-19T18:03:48.773Z,53.18
2023-02-19T18:06:15.791Z,53.75
2023-02-19T18:08:52.700Z,51.05
2023-02-19T18:11:20.378Z,51.26
2023-02-19T18:13:48.178Z,50.71
2023-02-19T18:16:18.324Z,51.94
2023-02-19T18:18:45.493Z,50.43
2023-02-19T18:21:13.232Z,50.91
2023-02-19T18:23:40.354Z,50.37
2023-02-19T18:26:10.933Z,49.56
2023-02-19T18:28:38.014Z,52.29
2023-02-19T18:31:05.304Z,53.41
2023-02-19T18:33:33.271Z,52.36
2023-02-19T18:36:00.488Z,53.37
2023-02-19T18:38:27.834Z,54.04
2023-02-19T18:40:54.791Z,52.60
2023-02-19T18:43:21.920Z,51.26
2023-02-19T18:45:48.950Z,51.00
2023-02-19T18:48:16.027Z,52.18
2023-02-19T18:50:44.812Z,51.33
2023-02-19T18:53:11.905Z,50.36
2023-02-19T18:55:38.871Z,50.64
2023-02-19T18:58:05.898Z,50.11
2023-02-19T19:00:32.941Z,50.28
2023-02-19T19:03:00.048Z,50.65
2023-02-19T19:05:27.235Z,50.94
2023-02-19T19:07:55.491Z,51.84
2023-02-19T19:10:22.590Z,51.99
2023-02-19T19:12:49.702Z,51.69
2023-02-19T19:15:18.267Z,53.22
2023-02-19T19:17:46.217Z,51.67
2023-02-19T19:20:13.561Z,51.63
2023-02-19T19:22:40.674Z,51.56
2023-02-19T19:25:08.858Z,50.29
2023-02-19T19:27:36.030Z,50.42
2023-02-19T19:30:06.087Z,50.54
2023-02-19T19:32:33.106Z,50.26
2023-02-19T19:35:00.169Z,49.90
2023-02-19T19:37:29.281Z,53.04
2023-02-19T19:39:56.732Z,52.97
2023-02-19T19:42:23.987Z,52.74
2023-02-19T19:44:51.021Z,51.43
2023-02-19T19:47:18.313Z,53.08
2023-02-19T19:49:47.247Z,52.05
2023-02-19T19:52:14.850Z,49.78
2023-02-19T19:54:43.347Z,49.33
2023-02-19T19:57:10.572Z,49.77
2023-02-19T19:59:39.651Z,49.43
2023-02-19T20:02:07.452Z,49.13
2023-02-19T20:04:34.654Z,49.24
2023-02-19T20:07:01.915Z,51.27
2023-02-19T20:09:29.303Z,53.12
2023-02-19T20:11:56.643Z,52.03
2023-02-19T20:14:24.207Z,51.94
2023-02-19T20:16:51.257Z,53.49
2023-02-19T20:19:18.766Z,52.30
2023-02-19T20:21:46.623Z,53.03
2023-02-19T20:24:15.753Z,52.08
2023-02-19T20:26:42.751Z,50.77
2023-02-19T20:29:10.587Z,50.49
2023-02-19T20:31:38.452Z,51.76
2023-02-19T20:34:05.737Z,51.24
2023-02-19T20:36:32.962Z,50.35
2023-02-19T20:39:00.032Z,51.04
2023-02-19T20:41:27.126Z,50.62
2023-02-19T20:43:54.095Z,52.36
2023-02-19T20:46:21.340Z,54.42
2023-02-19T20:48:50.424Z,53.22
2023-02-19T20:51:18.720Z,50.63
2023-02-19T20:53:45.706Z,51.08
2023-02-19T20:56:13.107Z,50.33
2023-02-19T20:58:43.438Z,49.93
2023-02-19T21:01:11.798Z,49.51
2023-02-19T21:03:38.791Z,51.50
2023-02-19T21:06:05.976Z,50.42
2023-02-19T21:08:33.047Z,50.10
2023-02-19T21:11:00.031Z,49.15
2023-02-19T21:13:28.421Z,49.44
2023-02-19T21:15:57.004Z,50.51
2023-02-19T21:18:24.079Z,52.87
2023-02-19T21:20:51.137Z,54.28
2023-02-19T21:23:18.404Z,52.64
2023-02-19T21:25:45.651Z,54.08
2023-02-19T21:28:12.725Z,52.03
2023-02-19T21:30:39.996Z,51.44
2023-02-19T21:33:07.135Z,51.55
2023-02-19T21:35:34.112Z,51.11
2023-02-19T21:38:01.027Z,52.06
2023-02-19T21:40:30.103Z,53.34
2023-02-19T21:42:57.191Z,53.79
2023-02-19T21:45:24.311Z,53.30
2023-02-19T21:47:55.327Z,54.42
2023-02-19T21:50:22.729Z,53.36
2023-02-19T21:52:49.905Z,52.99
2023-02-19T21:55:16.865Z,52.23
2023-02-19T21:57:44.067Z,52.39
2023-02-19T22:00:11.611Z,52.10
2023-02-19T22:02:38.723Z,54.41
2023-02-19T22:05:06.236Z,52.54
2023-02-19T22:07:33.245Z,52.03
2023-02-19T22:10:00.319Z,55.16
2023-02-19T22:12:27.262Z,53.47
2023-02-19T22:14:54.278Z,52.51
2023-02-19T22:17:21.250Z,51.96
2023-02-19T22:19:48.266Z,55.80
2023-02-19T22:22:15.297Z,54.66
2023-02-19T22:24:42.296Z,55.89
2023-02-19T22:27:09.275Z,53.24
2023-02-19T22:29:36.342Z,55.83
2023-02-19T22:32:03.488Z,54.81
2023-02-19T22:34:30.584Z,56.80
2023-02-19T22:36:57.617Z,56.53
2023-02-19T22:39:25.898Z,54.02
2023-02-19T22:41:53.613Z,55.47
2023-02-19T22:44:20.636Z,53.96
2023-02-19T22:46:51.803Z,57.73
2023-02-19T22:49:19.245Z,56.63
2023-02-19T22:52:01.574Z,57.70
2023-02-19T22:54:28.936Z,57.25
2023-02-19T22:56:56.141Z,57.07
2023-02-19T22:59:23.307Z,56.03
2023-02-19T23:01:50.436Z,56.74
2023-02-19T23:04:17.659Z,55.63
2023-02-19T23:06:45.863Z,55.74
2023-02-19T23:09:26.648Z,55.71
2023-02-19T23:11:53.745Z,55.70
2023-02-19T23:14:21.305Z,56.47
2023-02-19T23:16:48.368Z,54.37
2023-02-19T23:19:15.646Z,53.62
2023-02-19T23:21:43.810Z,52.33
2023-02-19T23:24:11.631Z,53.42
2023-02-19T23:26:45.426Z,52.68
2023-02-19T23:29:15.059Z,52.18
2023-02-19T23:31:42.196Z,52.97
2023-02-19T23:34:09.313Z,52.50
2023-02-19T23:36:43.272Z,56.36
2023-02-19T23:39:11.734Z,54.81
2023-02-19T23:41:38.851Z,53.32
2023-02-19T23:44:06.002Z,54.11
2023-02-19T23:46:34.052Z,54.77
2023-02-19T23:49:01.082Z,54.46
2023-02-19T23:51:27.981Z,53.32
2023-02-19T23:53:54.943Z,54.25
2023-02-19T23:56:25.744Z,54.25
2023-02-19T23:58:53.466Z,53.72
